createdAt,value
2019-03-12T00:00:11.986Z,33.2
2019-03-12T00:01:12.025Z,33.0
2019-03-12T00:02:11.964Z,31.2
2019-03-12T00:03:11.957Z,31.5
2019-03-12T00:04:11.947Z,31.7
2019-03-12T00:05:11.928Z,33.4
2019-03-12T00:06:11.917Z,33.4
2019-03-12T00:07:12.112Z,30.7
2019-03-12T00:08:11.900Z,34.2
2019-03-12T00:09:11.887Z,31.6
2019-03-12T00:10:11.879Z,33.9
2019-03-12T00:11:11.867Z,34.0
2019-03-12T00:12:11.859Z,28.7
2019-03-12T00:13:11.891Z,31.3
2019-03-12T00:14:11.834Z,35.7
2019-03-12T00:15:11.826Z,33.7
2019-03-12T00:16:11.814Z,35.0
2019-03-12T00:17:11.808Z,35.2
2019-03-12T00:18:11.793Z,32.9
2019-03-12T00:19:11.878Z,32.9
2019-03-12T00:20:11.768Z,36.0
2019-03-12T00:21:11.758Z,37.0
2019-03-12T00:22:11.748Z,31.3
2019-03-12T00:23:11.739Z,34.2
2019-03-12T00:24:11.722Z,32.9
2019-03-12T00:25:11.866Z,34.2
2019-03-12T00:26:11.701Z,35.7
2019-03-12T00:27:11.695Z,34.2
2019-03-12T00:28:11.683Z,36.4
2019-03-12T00:29:11.673Z,34.5
2019-03-12T00:30:11.659Z,36.2
2019-03-12T00:31:11.746Z,36.9
2019-03-12T00:32:11.638Z,38.0
2019-03-12T00:33:11.626Z,37.9
2019-03-12T00:34:11.618Z,38.9
2019-03-12T00:35:11.610Z,36.7
2019-03-12T00:36:11.596Z,39.2
2019-03-12T00:37:11.631Z,39.9
2019-03-12T00:38:11.576Z,40.7
2019-03-12T00:39:11.575Z,41.4
2019-03-12T00:40:11.557Z,42.4
2019-03-12T00:41:11.542Z,39.0
2019-03-12T00:42:11.532Z,39.2
2019-03-12T00:43:11.673Z,38.7
2019-03-12T00:44:11.508Z,40.2
2019-03-12T00:45:11.502Z,42.5
2019-03-12T00:46:11.489Z,37.7
2019-03-12T00:47:11.478Z,35.7
2019-03-12T00:48:11.467Z,34.7
2019-03-12T00:49:11.509Z,41.2
2019-03-12T00:50:11.449Z,40.2
2019-03-12T00:51:11.437Z,42.4
2019-03-12T00:52:11.421Z,33.7
2019-03-12T00:53:11.412Z,34.5
2019-03-12T00:54:11.401Z,36.5
2019-03-12T00:55:11.492Z,37.7
2019-03-12T00:56:11.376Z,37.9
2019-03-12T00:57:11.371Z,39.5
2019-03-12T00:58:11.360Z,42.7
2019-03-12T00:59:11.370Z,43.9
2019-03-12T01:00:11.339Z,41.2
2019-03-12T01:01:11.524Z,41.2
2019-03-12T01:02:11.321Z,37.9
2019-03-12T01:03:11.307Z,30.2
2019-03-12T01:04:11.298Z,34.9
2019-03-12T01:05:11.281Z,34.4
2019-03-12T01:06:11.274Z,32.0
2019-03-12T01:07:11.369Z,34.2
2019-03-12T01:08:11.254Z,34.9
2019-03-12T01:09:11.240Z,33.0
2019-03-12T01:10:11.230Z,34.5
2019-03-12T01:11:11.219Z,37.5
2019-03-12T01:12:11.259Z,37.5
2019-03-12T01:13:11.195Z,36.2
2019-03-12T01:14:11.186Z,37.0
2019-03-12T01:15:11.174Z,36.0
2019-03-12T01:16:11.166Z,38.5
2019-03-12T01:17:11.154Z,39.0
2019-03-12T01:18:13.650Z,40.0
2019-03-12T01:19:11.131Z,41.0
2019-03-12T01:20:11.122Z,40.4
2019-03-12T01:21:11.110Z,42.0
2019-03-12T01:22:11.101Z,35.7
2019-03-12T01:23:11.090Z,36.2
2019-03-12T01:24:11.127Z,37.5
2019-03-12T01:25:11.067Z,38.2
2019-03-12T01:26:11.055Z,36.7
2019-03-12T01:27:11.048Z,41.09
2019-03-12T01:28:11.034Z,38.59
2019-03-12T01:29:11.175Z,42.29
2019-03-12T01:30:11.061Z,39.09
2019-03-12T01:31:11.003Z,38.29
2019-03-12T01:32:10.990Z,38.09
2019-03-12T01:33:10.981Z,39.40
2019-03-12T01:34:10.972Z,40.20
2019-03-12T01:35:11.010Z,39.70
2019-03-12T01:36:10.950Z,40.09
2019-03-12T01:37:10.940Z,40.20
2019-03-12T01:38:10.927Z,39.00
2019-03-12T01:39:10.918Z,39.40
2019-03-12T01:40:10.906Z,36.59
2019-03-12T01:41:10.960Z,39.00
2019-03-12T01:42:10.886Z,37.09
2019-03-12T01:43:10.874Z,39.00
2019-03-12T01:44:10.863Z,37.29
2019-03-12T01:45:10.853Z,37.29
2019-03-12T01:46:10.845Z,36.90
2019-03-12T01:47:10.981Z,35.59
2019-03-12T01:48:10.830Z,34.90
2019-03-12T01:49:10.812Z,34.59
2019-03-12T01:50:10.800Z,36.79
2019-03-12T01:51:10.789Z,34.59
2019-03-12T01:52:10.843Z,35.50
2019-03-12T01:53:10.819Z,33.90
2019-03-12T01:54:10.757Z,38.40
2019-03-12T01:55:10.747Z,39.90
2019-03-12T01:56:10.736Z,39.79
2019-03-12T01:57:10.726Z,41.29
2019-03-12T01:58:10.885Z,38.59
2019-03-12T01:59:10.704Z,37.59
2019-03-12T02:00:10.693Z,37.90
2019-03-12T02:01:10.680Z,39.40
2019-03-12T02:02:10.673Z,40.00
2019-03-12T02:03:10.662Z,40.90
2019-03-12T02:04:10.799Z,40.40
2019-03-12T02:05:10.744Z,41.00
2019-03-12T02:06:10.628Z,42.09
2019-03-12T02:07:10.619Z,42.29
2019-03-12T02:08:10.611Z,41.70
2019-03-12T02:09:10.596Z,43.70
2019-03-12T02:10:10.634Z,40.79
2019-03-12T02:11:10.575Z,44.29
2019-03-12T02:12:10.566Z,44.40
2019-03-12T02:13:10.557Z,43.59
2019-03-12T02:14:10.545Z,41.59
2019-03-12T02:15:10.531Z,43.29
2019-03-12T02:16:10.571Z,42.50
2019-03-12T02:17:10.511Z,42.40
2019-03-12T02:18:10.513Z,40.70
2019-03-12T02:19:10.489Z,38.50
2019-03-12T02:20:10.477Z,38.40
2019-03-12T02:21:10.469Z,38.00
2019-03-12T02:22:10.610Z,37.90
2019-03-12T02:23:10.446Z,37.79
2019-03-12T02:24:10.436Z,38.09
2019-03-12T02:25:10.425Z,37.00
2019-03-12T02:26:10.417Z,39.29
2019-03-12T02:27:10.403Z,39.50
2019-03-12T02:28:10.449Z,38.29
2019-03-12T02:29:10.385Z,35.20
2019-03-12T02:30:10.374Z,37.70
2019-03-12T02:31:10.361Z,40.70
2019-03-12T02:32:10.354Z,39.90
2019-03-12T02:33:10.343Z,37.79
2019-03-12T02:34:10.378Z,38.20
2019-03-12T02:35:10.318Z,36.90
2019-03-12T02:36:10.309Z,37.29
2019-03-12T02:37:10.299Z,38.09
2019-03-12T02:38:10.292Z,39.09
2019-03-12T02:39:10.277Z,37.79
2019-03-12T02:40:10.468Z,38.29
2019-03-12T02:41:10.254Z,38.50
2019-03-12T02:42:12.706Z,39.00
2019-03-12T02:43:10.233Z,38.90
2019-03-12T02:44:10.224Z,39.59
2019-03-12T02:45:10.213Z,39.29
2019-03-12T02:46:10.251Z,38.59
2019-03-12T02:47:10.189Z,38.79
2019-03-12T02:48:10.180Z,37.90
2019-03-12T02:49:10.440Z,36.79
2019-03-12T02:50:10.157Z,37.40
2019-03-12T02:51:10.147Z,36.40
2019-03-12T02:52:10.189Z,36.29
2019-03-12T02:53:10.124Z,37.50
2019-03-12T02:54:10.120Z,39.20
2019-03-12T02:55:10.105Z,38.40
2019-03-12T02:56:10.092Z,37.90
2019-03-12T02:57:10.102Z,38.40
2019-03-12T02:58:10.220Z,40.00
2019-03-12T02:59:10.058Z,39.09
2019-03-12T03:00:10.051Z,40.50
2019-03-12T03:01:10.039Z,39.00
2019-03-12T03:02:10.033Z,39.59
2019-03-12T03:03:10.017Z,38.50
2019-03-12T03:04:10.057Z,36.79
2019-03-12T03:05:09.995Z,38.70
2019-03-12T03:06:09.988Z,39.09
2019-03-12T03:07:09.972Z,35.79
2019-03-12T03:08:09.963Z,34.20
2019-03-12T03:09:09.954Z,29.70
2019-03-12T03:10:09.992Z,30.60
2019-03-12T03:11:09.931Z,31.00
2019-03-12T03:12:09.919Z,33.40
2019-03-12T03:13:09.918Z,34.79
2019-03-12T03:14:09.898Z,32.59
2019-03-12T03:15:09.899Z,32.00
2019-03-12T03:16:10.029Z,32.20
2019-03-12T03:17:09.868Z,29.10
2019-03-12T03:18:09.855Z,31.39
2019-03-12T03:19:09.847Z,33.79
2019-03-12T03:20:09.834Z,33.40
2019-03-12T03:21:09.953Z,34.79
2019-03-12T03:22:09.865Z,31.70
2019-03-12T03:23:09.801Z,31.60
2019-03-12T03:24:09.791Z,29.70
2019-03-12T03:25:09.920Z,29.00
2019-03-12T03:26:09.771Z,28.89
2019-03-12T03:27:09.763Z,31.60
2019-03-12T03:28:09.800Z,31.79
2019-03-12T03:29:09.737Z,33.20
2019-03-12T03:30:09.740Z,33.70
2019-03-12T03:31:09.736Z,33.29
2019-03-12T03:32:09.711Z,33.40
2019-03-12T03:33:09.697Z,33.40
2019-03-12T03:34:09.835Z,33.09
2019-03-12T03:35:09.727Z,31.50
2019-03-12T03:36:09.663Z,30.79
2019-03-12T03:37:09.664Z,29.79
2019-03-12T03:38:09.670Z,29.20
2019-03-12T03:39:09.640Z,29.10
2019-03-12T03:40:09.684Z,30.70
2019-03-12T03:41:09.616Z,29.60
2019-03-12T03:42:09.602Z,29.89
2019-03-12T03:43:09.592Z,28.10
2019-03-12T03:44:09.581Z,27.70
2019-03-12T03:45:09.568Z,28.70
2019-03-12T03:46:09.667Z,28.29
2019-03-12T03:47:09.549Z,27.20
2019-03-12T03:48:09.540Z,26.50
2019-03-12T03:49:09.535Z,25.79
2019-03-12T03:50:09.518Z,25.70
2019-03-12T03:51:09.586Z,25.29
2019-03-12T03:52:09.649Z,26.00
2019-03-12T03:53:09.515Z,25.39
2019-03-12T03:54:09.478Z,25.29
2019-03-12T03:55:09.466Z,24.89
2019-03-12T03:56:09.455Z,26.20
2019-03-12T03:57:09.445Z,27.10
2019-03-12T03:58:09.485Z,26.79
2019-03-12T03:59:09.425Z,26.50
2019-03-12T04:00:09.411Z,27.70
2019-03-12T04:01:09.404Z,28.20
2019-03-12T04:02:09.397Z,26.10
2019-03-12T04:03:09.382Z,25.39
2019-03-12T04:04:09.424Z,27.39
2019-03-12T04:05:09.360Z,26.70
2019-03-12T04:06:09.350Z,27.10
2019-03-12T04:07:09.341Z,26.89
2019-03-12T04:08:09.328Z,26.89
2019-03-12T04:09:09.315Z,27.39
2019-03-12T04:10:09.355Z,28.10
2019-03-12T04:11:09.293Z,29.39
2019-03-12T04:12:09.281Z,28.29
2019-03-12T04:13:09.271Z,29.79
2019-03-12T04:14:09.258Z,32.90
2019-03-12T04:15:09.402Z,33.40
2019-03-12T04:16:09.241Z,34.70
2019-03-12T04:17:09.227Z,33.20
2019-03-12T04:18:09.218Z,31.79
2019-03-12T04:19:09.208Z,32.50
2019-03-12T04:20:09.213Z,31.70
2019-03-12T04:21:09.238Z,32.50
2019-03-12T04:22:09.174Z,31.70
2019-03-12T04:23:09.171Z,33.90
2019-03-12T04:24:09.155Z,33.40
2019-03-12T04:25:09.147Z,33.29
2019-03-12T04:26:09.134Z,34.00
2019-03-12T04:27:09.177Z,32.70
2019-03-12T04:28:09.117Z,32.79
2019-03-12T04:29:09.101Z,32.90
2019-03-12T04:30:09.100Z,32.29
2019-03-12T04:31:09.081Z,33.40
2019-03-12T04:32:09.081Z,32.79
2019-03-12T04:33:09.212Z,32.29
2019-03-12T04:34:09.049Z,32.79
2019-03-12T04:35:09.042Z,32.59
2019-03-12T04:36:09.029Z,32.79
2019-03-12T04:37:09.019Z,33.50
2019-03-12T04:38:09.008Z,31.70
2019-03-12T04:39:09.049Z,31.50
2019-03-12T04:40:08.989Z,32.00
2019-03-12T04:41:08.978Z,33.09
2019-03-12T04:42:08.967Z,33.59
2019-03-12T04:43:08.957Z,32.29
2019-03-12T04:44:08.949Z,33.29
2019-03-12T04:45:08.986Z,33.20
2019-03-12T04:46:08.925Z,33.59
2019-03-12T04:47:08.914Z,32.70
2019-03-12T04:48:08.903Z,32.29
2019-03-12T04:49:08.893Z,31.50
2019-03-12T04:50:08.884Z,32.20
2019-03-12T04:51:09.824Z,34.20
2019-03-12T04:52:08.869Z,34.50
2019-03-12T04:53:08.853Z,34.90
2019-03-12T04:54:08.843Z,34.29
2019-03-12T04:55:08.832Z,32.29
2019-03-12T04:56:08.821Z,32.40
2019-03-12T04:57:08.861Z,31.20
2019-03-12T04:58:08.801Z,31.89
2019-03-12T04:59:08.790Z,31.29
2019-03-12T05:00:08.779Z,32.70
2019-03-12T05:01:08.770Z,33.40
2019-03-12T05:02:08.760Z,33.29
2019-03-12T05:03:08.799Z,34.59
2019-03-12T05:04:08.740Z,33.20
2019-03-12T05:05:08.729Z,34.40
2019-03-12T05:06:08.719Z,34.09
2019-03-12T05:07:08.708Z,34.79
2019-03-12T05:08:08.699Z,33.40
2019-03-12T05:09:08.840Z,33.90
2019-03-12T05:10:08.677Z,34.59
2019-03-12T05:11:08.672Z,34.70
2019-03-12T05:12:08.656Z,36.20
2019-03-12T05:13:08.647Z,36.00
2019-03-12T05:14:08.636Z,34.70
2019-03-12T05:15:08.676Z,36.20
2019-03-12T05:16:08.627Z,36.79
2019-03-12T05:17:08.606Z,35.40
2019-03-12T05:18:08.595Z,35.70
2019-03-12T05:19:08.586Z,36.59
2019-03-12T05:20:08.577Z,35.70
2019-03-12T05:21:08.665Z,36.90
2019-03-12T05:22:08.553Z,37.00
2019-03-12T05:23:08.545Z,35.50
2019-03-12T05:24:08.533Z,36.70
2019-03-12T05:25:08.523Z,35.90
2019-03-12T05:26:08.513Z,35.90
2019-03-12T05:27:08.651Z,37.20
2019-03-12T05:28:08.492Z,37.09
2019-03-12T05:29:08.484Z,37.40
2019-03-12T05:30:08.470Z,36.20
2019-03-12T05:31:08.462Z,37.00
2019-03-12T05:32:08.450Z,37.40
2019-03-12T05:33:08.494Z,39.00
2019-03-12T05:34:08.430Z,37.09
2019-03-12T05:35:08.419Z,34.29
2019-03-12T05:36:08.417Z,35.59
2019-03-12T05:37:08.402Z,34.00
2019-03-12T05:38:08.394Z,33.20
2019-03-12T05:39:08.430Z,31.89
2019-03-12T05:40:08.369Z,30.00
2019-03-12T05:41:08.359Z,31.00
2019-03-12T05:42:08.348Z,30.39
2019-03-12T05:43:08.338Z,32.59
2019-03-12T05:44:08.326Z,33.20
2019-03-12T05:45:08.467Z,32.50
2019-03-12T05:46:08.308Z,33.09
2019-03-12T05:47:08.452Z,33.09
2019-03-12T05:48:08.286Z,32.90
2019-03-12T05:49:08.275Z,33.79
2019-03-12T05:50:08.266Z,34.70
2019-03-12T05:51:08.304Z,33.20
2019-03-12T05:52:08.248Z,33.50
2019-03-12T05:53:08.234Z,32.90
2019-03-12T05:54:08.222Z,32.29
2019-03-12T05:55:08.214Z,33.29
2019-03-12T05:56:08.202Z,31.89
2019-03-12T05:57:08.244Z,32.70
2019-03-12T05:58:08.181Z,31.89
2019-03-12T05:59:08.170Z,32.00
2019-03-12T06:00:08.237Z,32.59
2019-03-12T06:01:08.150Z,33.79
2019-03-12T06:02:08.143Z,34.00
2019-03-12T06:03:08.280Z,35.79
2019-03-12T06:04:08.119Z,34.20
2019-03-12T06:05:08.111Z,34.79
2019-03-12T06:06:08.102Z,34.40
2019-03-12T06:07:08.085Z,33.50
2019-03-12T06:08:08.079Z,32.79
2019-03-12T06:09:08.118Z,33.79
2019-03-12T06:10:08.059Z,32.09
2019-03-12T06:11:08.047Z,32.40
2019-03-12T06:12:08.038Z,31.79
2019-03-12T06:13:08.027Z,32.00
2019-03-12T06:14:08.014Z,31.79
2019-03-12T06:15:08.108Z,31.10
2019-03-12T06:16:07.995Z,30.29
2019-03-12T06:17:07.988Z,29.60
2019-03-12T06:18:07.973Z,28.60
2019-03-12T06:19:07.964Z,29.50
2019-03-12T06:20:07.952Z,29.29
2019-03-12T06:21:08.093Z,31.29
2019-03-12T06:22:11.275Z,29.60
2019-03-12T06:23:07.922Z,29.89
2019-03-12T06:24:07.940Z,30.00
2019-03-12T06:25:07.902Z,29.70
2019-03-12T06:26:07.900Z,31.20
2019-03-12T06:27:08.130Z,34.70
2019-03-12T06:28:07.871Z,29.39
2019-03-12T06:29:07.863Z,33.70
2019-03-12T06:30:07.849Z,29.39
2019-03-12T06:31:07.840Z,31.10
2019-03-12T06:32:07.828Z,31.00
2019-03-12T06:33:07.867Z,30.60
2019-03-12T06:34:07.812Z,30.20
2019-03-12T06:35:07.800Z,29.60
2019-03-12T06:36:07.788Z,76.00
2019-03-12T06:37:07.776Z,48.09
2019-03-12T06:38:07.767Z,30.10
2019-03-12T06:39:07.804Z,30.20
2019-03-12T06:40:07.745Z,32.09
2019-03-12T06:41:07.735Z,29.29
2019-03-12T06:42:08.182Z,28.70
2019-03-12T06:43:07.711Z,28.60
2019-03-12T06:44:07.709Z,29.10
2019-03-12T06:45:07.841Z,27.79
2019-03-12T06:46:07.686Z,26.70
2019-03-12T06:47:07.673Z,30.79
2019-03-12T06:48:07.662Z,28.50
2019-03-12T06:49:07.652Z,27.79
2019-03-12T06:50:07.692Z,27.50
2019-03-12T06:51:07.640Z,27.10
2019-03-12T06:52:07.626Z,28.60
2019-03-12T06:53:07.612Z,29.10
2019-03-12T06:54:07.600Z,30.79
2019-03-12T06:55:07.611Z,26.70
2019-03-12T06:56:07.632Z,26.29
2019-03-12T06:57:07.572Z,27.89
2019-03-12T06:58:07.557Z,28.50
2019-03-12T06:59:07.548Z,28.10
2019-03-12T07:00:07.538Z,33.59
2019-03-12T07:01:08.306Z,29.79
2019-03-12T07:02:07.516Z,31.00
2019-03-12T07:03:07.505Z,27.00
2019-03-12T07:04:07.496Z,26.89
2019-03-12T07:05:07.488Z,28.79
2019-03-12T07:06:07.478Z,43.90
2019-03-12T07:07:11.579Z,32.29
2019-03-12T07:08:07.457Z,26.70
2019-03-12T07:09:07.445Z,25.10
2019-03-12T07:10:07.434Z,27.00
2019-03-12T07:11:07.423Z,25.10
2019-03-12T07:12:07.412Z,24.70
2019-03-12T07:13:07.455Z,24.70
2019-03-12T07:14:07.391Z,24.39
2019-03-12T07:15:07.383Z,22.89
2019-03-12T07:16:07.371Z,24.10
2019-03-12T07:17:07.360Z,25.60
2019-03-12T07:18:07.352Z,25.20
2019-03-12T07:19:07.490Z,23.39
2019-03-12T07:20:07.330Z,23.60
2019-03-12T07:21:07.320Z,23.00
2019-03-12T07:22:07.312Z,20.20
2019-03-12T07:23:07.299Z,20.39
2019-03-12T07:24:07.288Z,23.20
2019-03-12T07:25:07.330Z,23.39
2019-03-12T07:26:07.268Z,21.10
2019-03-12T07:27:07.258Z,22.29
2019-03-12T07:28:07.249Z,21.39
2019-03-12T07:29:07.239Z,22.39
2019-03-12T07:30:07.228Z,21.00
2019-03-12T07:31:07.290Z,22.39
2019-03-12T07:32:07.210Z,20.79
2019-03-12T07:33:07.200Z,19.29
2019-03-12T07:34:07.191Z,20.29
2019-03-12T07:35:07.181Z,19.20
2019-03-12T07:36:07.165Z,18.79
2019-03-12T07:37:07.306Z,19.10
2019-03-12T07:38:07.146Z,17.39
2019-03-12T07:39:07.136Z,17.50
2019-03-12T07:40:07.128Z,18.10
2019-03-12T07:41:07.118Z,18.29
2019-03-12T07:42:07.111Z,17.89
2019-03-12T07:43:07.152Z,17.89
2019-03-12T07:44:07.313Z,18.29
2019-03-12T07:45:07.072Z,19.39
2019-03-12T07:46:07.064Z,18.79
2019-03-12T07:47:07.052Z,19.00
2019-03-12T07:48:07.087Z,16.79
2019-03-12T07:49:07.032Z,14.60
2019-03-12T07:50:07.017Z,14.89
2019-03-12T07:51:07.009Z,15.89
2019-03-12T07:52:08.766Z,16.10
2019-03-12T07:53:06.986Z,16.60
2019-03-12T07:54:07.074Z,18.00
2019-03-12T07:55:06.964Z,18.79
2019-03-12T07:56:06.953Z,19.39
2019-03-12T07:57:06.939Z,18.70
2019-03-12T07:58:06.929Z,15.60
2019-03-12T07:59:09.040Z,13.69
2019-03-12T08:00:09.920Z,13.69
2019-03-12T08:01:06.898Z,15.19
2019-03-12T08:02:06.886Z,15.00
2019-03-12T08:03:06.876Z,14.39
2019-03-12T08:04:06.865Z,13.80
2019-03-12T08:05:06.908Z,15.30
2019-03-12T08:06:06.847Z,14.39
2019-03-12T08:07:06.831Z,14.60
2019-03-12T08:08:06.820Z,13.50
2019-03-12T08:09:06.812Z,13.80
2019-03-12T08:10:06.801Z,14.00
2019-03-12T08:11:06.889Z,13.00
2019-03-12T08:12:06.778Z,13.50
2019-03-12T08:13:06.765Z,14.10
2019-03-12T08:14:06.758Z,14.10
2019-03-12T08:15:06.746Z,15.00
2019-03-12T08:16:06.738Z,13.89
2019-03-12T08:17:06.875Z,14.60
2019-03-12T08:18:06.712Z,13.89
2019-03-12T08:19:06.702Z,14.39
2019-03-12T08:20:06.691Z,13.80
2019-03-12T08:21:06.758Z,13.80
2019-03-12T08:22:06.677Z,13.80
2019-03-12T08:23:06.710Z,15.10
2019-03-12T08:24:06.745Z,14.30
2019-03-12T08:25:06.636Z,13.69
2019-03-12T08:26:06.723Z,13.69
2019-03-12T08:27:06.616Z,12.69
2019-03-12T08:28:06.602Z,14.00
2019-03-12T08:29:06.643Z,14.10
2019-03-12T08:30:06.579Z,14.60
2019-03-12T08:31:06.573Z,15.69
2019-03-12T08:32:06.562Z,15.39
2019-03-12T08:33:06.547Z,15.50
2019-03-12T08:34:06.545Z,12.10
2019-03-12T08:35:06.727Z,11.80
2019-03-12T08:36:06.521Z,8.80
2019-03-12T08:37:06.507Z,8.80
2019-03-12T08:38:06.496Z,9.89
2019-03-12T08:39:06.485Z,10.30
2019-03-12T08:40:06.476Z,10.19
2019-03-12T08:41:06.513Z,10.39
2019-03-12T08:42:06.452Z,10.80
2019-03-12T08:43:06.441Z,10.89
2019-03-12T08:44:06.432Z,10.39
2019-03-12T08:45:06.418Z,10.19
2019-03-12T08:46:06.410Z,10.19
2019-03-12T08:47:06.447Z,9.50
2019-03-12T08:48:06.385Z,9.89
2019-03-12T08:49:06.375Z,9.50
2019-03-12T08:50:06.362Z,8.89
2019-03-12T08:51:06.353Z,8.69
2019-03-12T08:52:06.344Z,8.30
2019-03-12T08:53:06.480Z,9.30
2019-03-12T08:54:06.318Z,7.09
2019-03-12T08:55:06.313Z,7.90
2019-03-12T08:56:06.295Z,8.39
2019-03-12T08:57:06.293Z,9.60
2019-03-12T08:58:06.327Z,9.30
2019-03-12T08:59:06.268Z,8.19
2019-03-12T09:00:06.256Z,8.89
2019-03-12T09:01:06.245Z,9.10
2019-03-12T09:02:06.234Z,8.69
2019-03-12T09:03:06.271Z,9.60
2019-03-12T09:04:06.214Z,9.80
2019-03-12T09:05:06.198Z,10.19
2019-03-12T09:06:06.189Z,10.19
2019-03-12T09:07:06.179Z,9.39
2019-03-12T09:08:06.169Z,10.00
2019-03-12T09:09:06.306Z,10.00
2019-03-12T09:10:06.148Z,11.00
2019-03-12T09:11:06.137Z,10.80
2019-03-12T09:12:06.122Z,12.19
2019-03-12T09:13:06.111Z,18.89
2019-03-12T09:14:06.103Z,13.60
2019-03-12T09:15:06.146Z,10.50
2019-03-12T09:16:06.085Z,12.39
2019-03-12T09:17:06.077Z,11.89
2019-03-12T09:18:06.058Z,11.80
2019-03-12T09:19:06.046Z,11.50
2019-03-12T09:20:06.039Z,10.50
2019-03-12T09:21:06.077Z,12.30
2019-03-12T09:22:06.014Z,13.00
2019-03-12T09:23:06.002Z,13.00
2019-03-12T09:24:05.998Z,13.19
2019-03-12T09:25:05.983Z,13.69
2019-03-12T09:26:05.987Z,13.80
2019-03-12T09:27:06.214Z,9.50
2019-03-12T09:28:05.949Z,11.69
2019-03-12T09:29:05.939Z,11.50
2019-03-12T09:30:06.012Z,11.50
2019-03-12T09:31:05.919Z,10.80
2019-03-12T09:32:05.906Z,12.10
2019-03-12T09:33:05.942Z,11.80
2019-03-12T09:34:05.886Z,10.80
2019-03-12T09:35:05.872Z,11.60
2019-03-12T09:36:05.866Z,10.80
2019-03-12T09:37:05.853Z,10.50
2019-03-12T09:38:05.845Z,11.60
2019-03-12T09:39:05.888Z,11.69
2019-03-12T09:40:05.825Z,12.80
2019-03-12T09:41:05.809Z,14.80
2019-03-12T09:42:05.799Z,13.50
2019-03-12T09:43:05.785Z,14.19
2019-03-12T09:44:05.777Z,13.10
2019-03-12T09:45:05.916Z,13.80
2019-03-12T09:46:05.753Z,13.69
2019-03-12T09:47:05.742Z,13.80
2019-03-12T09:48:05.737Z,14.30
2019-03-12T09:49:05.728Z,13.30
2019-03-12T09:50:05.714Z,13.00
2019-03-12T09:51:05.752Z,14.80
2019-03-12T09:52:05.687Z,15.60
2019-03-12T09:53:05.680Z,15.89
2019-03-12T09:54:05.667Z,14.80
2019-03-12T09:55:05.658Z,13.60
2019-03-12T09:56:05.646Z,14.19
2019-03-12T09:57:05.686Z,12.00
2019-03-12T09:58:05.623Z,13.50
2019-03-12T09:59:05.617Z,13.30
2019-03-12T10:00:15.688Z,13.89
2019-03-12T10:01:30.402Z,14.10
2019-03-12T10:02:30.507Z,14.19
2019-03-12T10:03:30.392Z,17.39
2019-03-12T10:04:30.439Z,17.70
2019-03-12T10:05:30.362Z,14.80
2019-03-12T10:06:30.351Z,14.30
2019-03-12T10:07:30.337Z,14.10
2019-03-12T10:08:30.431Z,14.69
2019-03-12T10:09:30.318Z,14.39
2019-03-12T10:10:30.313Z,13.89
2019-03-12T10:11:30.295Z,16.00
2019-03-12T10:12:30.287Z,13.69
2019-03-12T10:13:30.430Z,13.00
2019-03-12T10:14:30.265Z,14.10
2019-03-12T10:15:30.257Z,12.39
2019-03-12T10:16:30.354Z,16.70
2019-03-12T10:17:30.230Z,14.10
2019-03-12T10:18:30.220Z,15.30
2019-03-12T10:19:30.260Z,12.30
2019-03-12T10:20:30.196Z,14.00
2019-03-12T10:21:30.196Z,14.19
2019-03-12T10:22:30.175Z,12.19
2019-03-12T10:23:30.169Z,12.50
2019-03-12T10:24:30.202Z,11.30
2019-03-12T10:25:30.148Z,11.00
2019-03-12T10:26:30.137Z,18.70
2019-03-12T10:27:30.122Z,16.29
2019-03-12T10:28:30.114Z,12.00
2019-03-12T10:29:30.402Z,13.69
2019-03-12T10:30:30.092Z,13.60
2019-03-12T10:31:30.077Z,12.39
2019-03-12T10:32:30.067Z,13.50
2019-03-12T10:33:30.058Z,13.30
2019-03-12T10:34:30.389Z,12.39
2019-03-12T10:35:30.036Z,13.39
2019-03-12T10:36:31.127Z,12.80
2019-03-12T10:37:30.017Z,12.80
2019-03-12T10:38:30.004Z,10.80
2019-03-12T10:39:29.990Z,14.00
2019-03-12T10:40:30.030Z,14.10
2019-03-12T10:41:30.015Z,12.30
2019-03-12T10:42:30.002Z,12.30
2019-03-12T10:43:29.991Z,12.30
2019-03-12T10:44:29.976Z,16.10
2019-03-12T10:45:30.120Z,12.69
2019-03-12T10:46:29.954Z,13.19
2019-03-12T10:47:29.945Z,12.89
2019-03-12T10:48:29.930Z,14.39
2019-03-12T10:49:37.279Z,13.50
2019-03-12T10:50:54.781Z,11.69
2019-03-12T10:51:54.764Z,11.69
2019-03-12T10:52:54.955Z,11.10
2019-03-12T10:53:54.743Z,12.10
2019-03-12T10:54:54.735Z,14.80
2019-03-12T10:55:54.803Z,14.19
2019-03-12T10:56:54.708Z,14.00
2019-03-12T10:57:54.698Z,11.60
2019-03-12T10:58:54.689Z,14.39
2019-03-12T10:59:54.673Z,12.80
2019-03-12T11:00:54.662Z,14.50
2019-03-12T11:01:54.754Z,14.00
2019-03-12T11:02:54.646Z,15.50
2019-03-12T11:03:54.633Z,14.69
2019-03-12T11:04:54.823Z,14.60
2019-03-12T11:05:54.612Z,15.50
2019-03-12T11:06:54.595Z,14.39
2019-03-12T11:07:54.634Z,12.00
2019-03-12T11:08:54.575Z,12.00
2019-03-12T11:09:54.586Z,11.60
2019-03-12T11:10:54.554Z,12.69
2019-03-12T11:11:54.542Z,12.30
2019-03-12T11:12:54.534Z,12.39
2019-03-12T11:13:54.724Z,16.10
2019-03-12T11:14:54.516Z,12.10
2019-03-12T11:15:54.503Z,14.00
2019-03-12T11:16:54.488Z,12.10
2019-03-12T11:17:54.476Z,12.89
2019-03-12T11:18:54.466Z,11.39
2019-03-12T11:19:54.506Z,12.89
2019-03-12T11:20:54.462Z,11.39
2019-03-12T11:21:54.436Z,12.50
2019-03-12T11:22:54.421Z,12.80
2019-03-12T11:23:54.410Z,12.10
2019-03-12T11:24:54.403Z,13.69
2019-03-12T11:25:54.442Z,12.39
2019-03-12T11:26:54.377Z,15.00
2019-03-12T11:27:54.369Z,12.10
2019-03-12T11:28:54.359Z,11.80
2019-03-12T11:29:54.344Z,13.00
2019-03-12T11:30:54.339Z,13.00
2019-03-12T11:31:54.774Z,13.50
2019-03-12T11:32:54.311Z,11.30
2019-03-12T11:33:54.303Z,12.60
2019-03-12T11:34:54.290Z,12.60
2019-03-12T11:35:54.329Z,14.50
2019-03-12T11:36:54.268Z,15.10
2019-03-12T11:37:54.325Z,16.10
2019-03-12T11:38:54.277Z,17.39
2019-03-12T11:39:54.228Z,14.19
2019-03-12T11:40:54.277Z,11.69
2019-03-12T11:41:54.212Z,12.80
2019-03-12T11:42:54.237Z,13.80
2019-03-12T11:43:54.290Z,16.60
2019-03-12T11:44:54.206Z,16.29
2019-03-12T11:45:54.169Z,14.39
2019-03-12T11:46:54.177Z,11.89
2019-03-12T11:47:54.147Z,12.30
2019-03-12T11:48:54.135Z,11.69
2019-03-12T11:49:54.624Z,11.50
2019-03-12T11:50:54.118Z,11.80
2019-03-12T11:51:54.105Z,11.69
2019-03-12T11:52:57.657Z,12.19
2019-03-12T11:53:54.088Z,10.60
2019-03-12T11:54:54.068Z,15.19
2019-03-12T11:55:54.229Z,12.60
2019-03-12T11:56:54.072Z,13.50
2019-03-12T11:57:54.322Z,21.79
2019-03-12T11:58:54.025Z,12.10
2019-03-12T11:59:54.290Z,14.30
2019-03-12T12:00:54.006Z,12.10
2019-03-12T12:01:54.097Z,12.00
2019-03-12T12:02:59.739Z,11.80
2019-03-12T12:04:18.780Z,13.30
2019-03-12T12:05:18.771Z,13.19
2019-03-12T12:06:18.757Z,11.00
2019-03-12T12:07:18.998Z,11.50
2019-03-12T12:08:18.777Z,11.80
2019-03-12T12:09:18.734Z,10.39
2019-03-12T12:10:18.681Z,10.30
2019-03-12T12:11:18.708Z,9.69
2019-03-12T12:12:18.696Z,10.30
2019-03-12T12:13:18.737Z,9.19
2019-03-12T12:14:18.671Z,9.10
2019-03-12T12:15:18.660Z,9.80
2019-03-12T12:16:18.650Z,11.39
2019-03-12T12:17:18.635Z,11.39
2019-03-12T12:18:18.737Z,10.39
2019-03-12T12:19:18.695Z,10.89
2019-03-12T12:20:29.021Z,10.80
2019-03-12T12:21:43.415Z,10.69
2019-03-12T12:22:43.396Z,10.69
2019-03-12T12:23:43.531Z,11.00
2019-03-12T12:24:43.377Z,9.69
2019-03-12T12:25:43.364Z,9.50
2019-03-12T12:26:43.352Z,9.89
2019-03-12T12:27:43.344Z,9.50
2019-03-12T12:28:43.328Z,11.00
2019-03-12T12:29:43.368Z,10.50
2019-03-12T12:30:43.307Z,10.69
2019-03-12T12:31:43.291Z,11.69
2019-03-12T12:32:43.285Z,11.80
2019-03-12T12:33:43.270Z,10.69
2019-03-12T12:34:43.260Z,9.39
2019-03-12T12:35:43.304Z,10.30
2019-03-12T12:36:43.241Z,9.80
2019-03-12T12:37:43.246Z,8.60
2019-03-12T12:38:43.221Z,9.69
2019-03-12T12:39:43.207Z,11.50
2019-03-12T12:40:43.195Z,9.19
2019-03-12T12:41:43.486Z,9.80
2019-03-12T12:42:43.172Z,9.10
2019-03-12T12:43:43.162Z,8.39
2019-03-12T12:44:43.150Z,9.30
2019-03-12T12:45:43.135Z,8.69
2019-03-12T12:46:43.125Z,10.30
2019-03-12T12:47:43.209Z,9.69
2019-03-12T12:48:43.103Z,9.30
2019-03-12T12:49:43.095Z,10.80
2019-03-12T12:50:43.073Z,9.80
2019-03-12T12:51:43.066Z,11.10
2019-03-12T12:52:43.061Z,9.60
2019-03-12T12:53:43.070Z,8.00
2019-03-12T12:54:43.000Z,7.00
2019-03-12T12:55:42.988Z,6.59
2019-03-12T12:56:42.980Z,6.69
2019-03-12T12:57:42.966Z,5.69
2019-03-12T12:58:42.958Z,5.90